sensor_id;sensor_type;location;lat;lon;timestamp;P1;durP1;ratioP1;P2;durP2;ratioP2
75342;SDS011;63936;51.006;13.764;2023-08-01T00:00:02;7;;;3;;
75342;SDS011;63936;51.006;13.764;2023-08-01T00:02:04;8;;;3;;
75342;SDS011;63936;51.006;13.764;2023-08-01T00:04:03;7;;;3;;
75342;SDS011;63936;51.006;13.764;2023-08-01T00:06:05;7;;;3;;
75342;SDS011;63936;51.006;13.764;2023-08-01T00:08:03;7;;;3;;
75342;SDS011;63936;51.006;13.764;2023-08-01T00:10:05;7;;;3;;
75342;SDS011;63936;51.006;13.764;2023-08-01T00:12:02;8;;;3;;
75342;SDS011;63936;51.006;13.764;2023-08-01T00:14:02;8;;;3;;
75342;SDS011;63936;51.006;13.764;2023-08-01T00:16:02;8;;;3;;
75342;SDS011;63936;51.006;13.764;2023-08-01T00:18:04;8;;;3;;
75342;SDS011;63936;51.006;13.764;2023-08-01T00:20:06;7;;;3;;
75342;SDS011;63936;51.006;13.764;2023-08-01T00:22:02;7;;;3;;
75342;SDS011;63936;51.006;13.764;2023-08-01T00:24:03;7;;;3;;
75342;SDS011;63936;51.006;13.764;2023-08-01T00:26:05;6;;;3;;
75342;SDS011;63936;51.006;13.764;2023-08-01T00:28:02;7;;;3;;
75342;SDS011;63936;51.006;13.764;2023-08-01T00:30:09;6;;;3;;
75342;SDS011;63936;51.006;13.764;2023-08-01T00:32:02;6;;;3;;
75342;SDS011;63936;51.006;13.764;2023-08-01T00:34:05;6;;;3;;
75342;SDS011;63936;51.006;13.764;2023-08-01T00:36:03;7;;;3;;
75342;SDS011;63936;51.006;13.764;2023-08-01T00:38:02;6;;;3;;
75342;SDS011;63936;51.006;13.764;2023-08-01T00:40:05;7;;;3;;
75342;SDS011;63936;51.006;13.764;2023-08-01T00:42:02;7;;;3;;
75342;SDS011;63936;51.006;13.764;2023-08-01T00:44:01;7;;;3;;
75342;SDS011;63936;51.006;13.764;2023-08-01T00:46:03;8;;;3;;
75342;SDS011;63936;51.006;13.764;2023-08-01T00:48:02;8;;;2;;
75342;SDS011;63936;51.006;13.764;2023-08-01T00:50:04;7;;;2;;
75342;SDS011;63936;51.006;13.764;2023-08-01T00:52:01;8;;;3;;
75342;SDS011;63936;51.006;13.764;2023-08-01T00:54:01;7;;;3;;
75342;SDS011;63936;51.006;13.764;2023-08-01T00:56:02;6;;;3;;
75342;SDS011;63936;51.006;13.764;2023-08-01T00:58:02;6;;;3;;
75342;SDS011;63936;51.006;13.764;2023-08-01T01:00:05;7;;;3;;
75342;SDS011;63936;51.006;13.764;2023-08-01T01:02:02;6;;;2;;
75342;SDS011;63936;51.006;13.764;2023-08-01T01:04:02;6;;;3;;
75342;SDS011;63936;51.006;13.764;2023-08-01T01:06:06;6;;;3;;
75342;SDS011;63936;51.006;13.764;2023-08-01T01:08:02;7;;;3;;
75342;SDS011;63936;51.006;13.764;2023-08-01T01:10:01;6;;;3;;
75342;SDS011;63936;51.006;13.764;2023-08-01T01:12:01;5;;;2;;
75342;SDS011;63936;51.006;13.764;2023-08-01T01:14:01;6;;;2;;
75342;SDS011;63936;51.006;13.764;2023-08-01T01:16:01;6;;;3;;
75342;SDS011;63936;51.006;13.764;2023-08-01T01:18:01;6;;;3;;
75342;SDS011;63936;51.006;13.764;2023-08-01T01:20:02;6;;;3;;
75342;SDS011;63936;51.006;13.764;2023-08-01T01:22:02;7;;;3;;
75342;SDS011;63936;51.006;13.764;2023-08-01T01:24:01;6;;;3;;
75342;SDS011;63936;51.006;13.764;2023-08-01T01:26:02;6;;;3;;
75342;SDS011;63936;51.006;13.764;2023-08-01T01:28:02;6;;;3;;
75342;SDS011;63936;51.006;13.764;2023-08-01T01:30:02;6;;;3;;
75342;SDS011;63936;51.006;13.764;2023-08-01T01:32:01;6;;;3;;
75342;SDS011;63936;51.006;13.764;2023-08-01T01:34:01;6;;;3;;
75342;SDS011;63936;51.006;13.764;2023-08-01T01:36:01;6;;;3;;
75342;SDS011;63936;51.006;13.764;2023-08-01T01:38:01;6;;;3;;
75342;SDS011;63936;51.006;13.764;2023-08-01T01:40:02;6;;;3;;
75342;SDS011;63936;51.006;13.764;2023-08-01T01:42:01;6;;;3;;
75342;SDS011;63936;51.006;13.764;2023-08-01T01:44:01;6;;;3;;
75342;SDS011;63936;51.006;13.764;2023-08-01T01:46:01;6;;;3;;
75342;SDS011;63936;51.006;13.764;2023-08-01T01:48:01;6;;;3;;
75342;SDS011;63936;51.006;13.764;2023-08-01T01:50:02;6;;;3;;
75342;SDS011;63936;51.006;13.764;2023-08-01T01:52:01;8;;;3;;
75342;SDS011;63936;51.006;13.764;2023-08-01T01:54:01;8;;;3;;
75342;SDS011;63936;51.006;13.764;2023-08-01T01:56:01;6;;;3;;
75342;SDS011;63936;51.006;13.764;2023-08-01T01:58:01;6;;;3;;
75342;SDS011;63936;51.006;13.764;2023-08-01T02:00:02;7;;;3;;
75342;SDS011;63936;51.006;13.764;2023-08-01T02:02:01;6;;;3;;
75342;SDS011;63936;51.006;13.764;2023-08-01T02:04:01;8;;;3;;
75342;SDS011;63936;51.006;13.764;2023-08-01T02:06:03;7;;;3;;
75342;SDS011;63936;51.006;13.764;2023-08-01T02:08:01;6;;;3;;
75342;SDS011;63936;51.006;13.764;2023-08-01T02:10:03;6;;;3;;
75342;SDS011;63936;51.006;13.764;2023-08-01T02:12:02;6;;;3;;
75342;SDS011;63936;51.006;13.764;2023-08-01T02:14:02;6;;;3;;
75342;SDS011;63936;51.006;13.764;2023-08-01T02:16:01;8;;;3;;
75342;SDS011;63936;51.006;13.764;2023-08-01T02:18:01;8;;;4;;
75342;SDS011;63936;51.006;13.764;2023-08-01T02:20:01;8;;;3;;
75342;SDS011;63936;51.006;13.764;2023-08-01T02:22:01;7;;;3;;
75342;SDS011;63936;51.006;13.764;2023-08-01T02:24:01;8;;;3;;
75342;SDS011;63936;51.006;13.764;2023-08-01T02:26:01;7;;;4;;
75342;SDS011;63936;51.006;13.764;2023-08-01T02:28:01;9;;;3;;
75342;SDS011;63936;51.006;13.764;2023-08-01T02:30:02;8;;;3;;
75342;SDS011;63936;51.006;13.764;2023-08-01T02:32:01;7;;;3;;
75342;SDS011;63936;51.006;13.764;2023-08-01T02:34:01;6;;;3;;
75342;SDS011;63936;51.006;13.764;2023-08-01T02:36:01;6;;;3;;
75342;SDS011;63936;51.006;13.764;2023-08-01T02:38:01;6;;;3;;
75342;SDS011;63936;51.006;13.764;2023-08-01T02:40:04;6;;;3;;
75342;SDS011;63936;51.006;13.764;2023-08-01T02:42:02;7;;;3;;
75342;SDS011;63936;51.006;13.764;2023-08-01T02:44:02;7;;;3;;
75342;SDS011;63936;51.006;13.764;2023-08-01T02:46:01;7;;;4;;
75342;SDS011;63936;51.006;13.764;2023-08-01T02:48:01;7;;;4;;
75342;SDS011;63936;51.006;13.764;2023-08-01T02:50:01;7;;;4;;
75342;SDS011;63936;51.006;13.764;2023-08-01T02:52:01;7;;;4;;
75342;SDS011;63936;51.006;13.764;2023-08-01T02:54:01;8;;;4;;
75342;SDS011;63936;51.006;13.764;2023-08-01T02:56:01;8;;;4;;
75342;SDS011;63936;51.006;13.764;2023-08-01T02:58:01;6;;;3;;
75342;SDS011;63936;51.006;13.764;2023-08-01T03:00:03;7;;;3;;
75342;SDS011;63936;51.006;13.764;2023-08-01T03:02:02;7;;;3;;
75342;SDS011;63936;51.006;13.764;2023-08-01T03:04:02;6;;;3;;
75342;SDS011;63936;51.006;13.764;2023-08-01T03:06:02;7;;;3;;
75342;SDS011;63936;51.006;13.764;2023-08-01T03:08:02;6;;;3;;
75342;SDS011;63936;51.006;13.764;2023-08-01T03:10:02;7;;;3;;
75342;SDS011;63936;51.006;13.764;2023-08-01T03:12:02;7;;;3;;
75342;SDS011;63936;51.006;13.764;2023-08-01T03:14:02;8;;;3;;
75342;SDS011;63936;51.006;13.764;2023-08-01T03:16:01;7;;;3;;
75342;SDS011;63936;51.006;13.764;2023-08-01T03:18:01;6;;;3;;
75342;SDS011;63936;51.006;13.764;2023-08-01T03:20:01;6;;;3;;
75342;SDS011;63936;51.006;13.764;2023-08-01T03:22:01;7;;;3;;
75342;SDS011;63936;51.006;13.764;2023-08-01T03:24:02;8;;;3;;
75342;SDS011;63936;51.006;13.764;2023-08-01T03:26:01;6;;;3;;
75342;SDS011;63936;51.006;13.764;2023-08-01T03:28:01;6;;;3;;
75342;SDS011;63936;51.006;13.764;2023-08-01T03:30:02;7;;;3;;
75342;SDS011;63936;51.006;13.764;2023-08-01T03:32:01;7;;;3;;
75342;SDS011;63936;51.006;13.764;2023-08-01T03:34:01;7;;;3;;
75342;SDS011;63936;51.006;13.764;2023-08-01T03:36:01;7;;;3;;
75342;SDS011;63936;51.006;13.764;2023-08-01T03:38:01;6;;;3;;
75342;SDS011;63936;51.006;13.764;2023-08-01T03:40:02;6;;;3;;
75342;SDS011;63936;51.006;13.764;2023-08-01T03:42:01;6;;;3;;
75342;SDS011;63936;51.006;13.764;2023-08-01T03:44:01;6;;;3;;
75342;SDS011;63936;51.006;13.764;2023-08-01T03:46:01;6;;;3;;
75342;SDS011;63936;51.006;13.764;2023-08-01T03:48:01;6;;;3;;
75342;SDS011;63936;51.006;13.764;2023-08-01T03:50:01;6;;;2;;
75342;SDS011;63936;51.006;13.764;2023-08-01T03:52:01;5;;;2;;
75342;SDS011;63936;51.006;13.764;2023-08-01T03:54:01;5;;;2;;
75342;SDS011;63936;51.006;13.764;2023-08-01T03:56:01;6;;;2;;
75342;SDS011;63936;51.006;13.764;2023-08-01T03:58:01;6;;;2;;
75342;SDS011;63936;51.006;13.764;2023-08-01T04:00:02;6;;;2;;
75342;SDS011;63936;51.006;13.764;2023-08-01T04:02:05;6;;;2;;
75342;SDS011;63936;51.006;13.764;2023-08-01T04:04:03;5;;;2;;
75342;SDS011;63936;51.006;13.764;2023-08-01T04:06:03;5;;;2;;
75342;SDS011;63936;51.006;13.764;2023-08-01T04:08:02;5;;;2;;
75342;SDS011;63936;51.006;13.764;2023-08-01T04:10:05;5;;;2;;
75342;SDS011;63936;51.006;13.764;2023-08-01T04:12:02;6;;;2;;
75342;SDS011;63936;51.006;13.764;2023-08-01T04:14:02;6;;;2;;
75342;SDS011;63936;51.006;13.764;2023-08-01T04:16:01;7;;;2;;
75342;SDS011;63936;51.006;13.764;2023-08-01T04:18:01;7;;;2;;
75342;SDS011;63936;51.006;13.764;2023-08-01T04:20:07;6;;;2;;
75342;SDS011;63936;51.006;13.764;2023-08-01T04:22:02;5;;;2;;
75342;SDS011;63936;51.006;13.764;2023-08-01T04:24:02;6;;;2;;
75342;SDS011;63936;51.006;13.764;2023-08-01T04:26:02;7;;;3;;
75342;SDS011;63936;51.006;13.764;2023-08-01T04:28:02;6;;;3;;
75342;SDS011;63936;51.006;13.764;2023-08-01T04:30:03;7;;;3;;
75342;SDS011;63936;51.006;13.764;2023-08-01T04:32:02;8;;;4;;
75342;SDS011;63936;51.006;13.764;2023-08-01T04:34:02;8;;;4;;
75342;SDS011;63936;51.006;13.764;2023-08-01T04:36:02;8;;;4;;
75342;SDS011;63936;51.006;13.764;2023-08-01T04:38:02;9;;;4;;
75342;SDS011;63936;51.006;13.764;2023-08-01T04:40:04;8;;;4;;
75342;SDS011;63936;51.006;13.764;2023-08-01T04:42:02;8;;;4;;
75342;SDS011;63936;51.006;13.764;2023-08-01T04:44:02;8;;;5;;
75342;SDS011;63936;51.006;13.764;2023-08-01T04:46:02;8;;;4;;
75342;SDS011;63936;51.006;13.764;2023-08-01T04:48:01;6;;;3;;
75342;SDS011;63936;51.006;13.764;2023-08-01T04:50:03;6;;;3;;
75342;SDS011;63936;51.006;13.764;2023-08-01T04:52:02;6;;;3;;
75342;SDS011;63936;51.006;13.764;2023-08-01T04:54:02;6;;;3;;
75342;SDS011;63936;51.006;13.764;2023-08-01T04:56:01;5;;;2;;
75342;SDS011;63936;51.006;13.764;2023-08-01T04:58:01;5;;;2;;
75342;SDS011;63936;51.006;13.764;2023-08-01T05:00:06;7;;;3;;
75342;SDS011;63936;51.006;13.764;2023-08-01T05:02:02;7;;;3;;
75342;SDS011;63936;51.006;13.764;2023-08-01T05:04:02;5;;;3;;
75342;SDS011;63936;51.006;13.764;2023-08-01T05:06:01;5;;;3;;
75342;SDS011;63936;51.006;13.764;2023-08-01T05:08:01;6;;;3;;
75342;SDS011;63936;51.006;13.764;2023-08-01T05:10:03;5;;;3;;
75342;SDS011;63936;51.006;13.764;2023-08-01T05:12:02;7;;;3;;
75342;SDS011;63936;51.006;13.764;2023-08-01T05:14:02;7;;;3;;
75342;SDS011;63936;51.006;13.764;2023-08-01T05:16:02;6;;;3;;
75342;SDS011;63936;51.006;13.764;2023-08-01T05:18:01;6;;;3;;
75342;SDS011;63936;51.006;13.764;2023-08-01T05:20:03;5;;;3;;
75342;SDS011;63936;51.006;13.764;2023-08-01T05:22:01;5;;;3;;
75342;SDS011;63936;51.006;13.764;2023-08-01T05:24:01;6;;;3;;
75342;SDS011;63936;51.006;13.764;2023-08-01T05:26:01;6;;;2;;
75342;SDS011;63936;51.006;13.764;2023-08-01T05:28:02;6;;;3;;
75342;SDS011;63936;51.006;13.764;2023-08-01T05:30:03;7;;;3;;
75342;SDS011;63936;51.006;13.764;2023-08-01T05:32:02;6;;;2;;
75342;SDS011;63936;51.006;13.764;2023-08-01T05:34:02;5;;;2;;
75342;SDS011;63936;51.006;13.764;2023-08-01T05:36:01;4;;;2;;
75342;SDS011;63936;51.006;13.764;2023-08-01T05:38:02;4;;;2;;
75342;SDS011;63936;51.006;13.764;2023-08-01T05:40:04;5;;;2;;
75342;SDS011;63936;51.006;13.764;2023-08-01T05:42:01;5;;;2;;
75342;SDS011;63936;51.006;13.764;2023-08-01T05:44:03;4;;;2;;
75342;SDS011;63936;51.006;13.764;2023-08-01T05:46:02;4;;;2;;
75342;SDS011;63936;51.006;13.764;2023-08-01T05:48:02;4;;;2;;
75342;SDS011;63936;51.006;13.764;2023-08-01T05:50:06;4;;;1;;
75342;SDS011;63936;51.006;13.764;2023-08-01T05:52:01;4;;;2;;
75342;SDS011;63936;51.006;13.764;2023-08-01T05:54:01;4;;;2;;
75342;SDS011;63936;51.006;13.764;2023-08-01T05:56:01;4;;;1;;
75342;SDS011;63936;51.006;13.764;2023-08-01T05:58:01;4;;;2;;
75342;SDS011;63936;51.006;13.764;2023-08-01T06:00:03;5;;;2;;
75342;SDS011;63936;51.006;13.764;2023-08-01T06:02:02;5;;;2;;
75342;SDS011;63936;51.006;13.764;2023-08-01T06:04:02;6;;;1;;
75342;SDS011;63936;51.006;13.764;2023-08-01T06:06:01;4;;;1;;
75342;SDS011;63936;51.006;13.764;2023-08-01T06:08:01;4;;;1;;
75342;SDS011;63936;51.006;13.764;2023-08-01T06:10:02;4;;;1;;
75342;SDS011;63936;51.006;13.764;2023-08-01T06:12:01;4;;;1;;
75342;SDS011;63936;51.006;13.764;2023-08-01T06:14:01;4;;;1;;
75342;SDS011;63936;51.006;13.764;2023-08-01T06:16:02;4;;;1;;
75342;SDS011;63936;51.006;13.764;2023-08-01T06:18:02;4;;;1;;
75342;SDS011;63936;51.006;13.764;2023-08-01T06:20:03;4;;;1;;
75342;SDS011;63936;51.006;13.764;2023-08-01T06:22:01;4;;;1;;
75342;SDS011;63936;51.006;13.764;2023-08-01T06:24:01;4;;;1;;
75342;SDS011;63936;51.006;13.764;2023-08-01T06:26:01;4;;;1;;
75342;SDS011;63936;51.006;13.764;2023-08-01T06:28:01;4;;;1;;
75342;SDS011;63936;51.006;13.764;2023-08-01T06:30:02;5;;;2;;
75342;SDS011;63936;51.006;13.764;2023-08-01T06:32:01;4;;;1;;
75342;SDS011;63936;51.006;13.764;2023-08-01T06:34:01;4;;;1;;
75342;SDS011;63936;51.006;13.764;2023-08-01T06:36:02;4;;;1;;
75342;SDS011;63936;51.006;13.764;2023-08-01T06:38:02;5;;;1;;
75342;SDS011;63936;51.006;13.764;2023-08-01T06:40:03;4;;;1;;
75342;SDS011;63936;51.006;13.764;2023-08-01T06:42:02;3;;;1;;
75342;SDS011;63936;51.006;13.764;2023-08-01T06:44:02;3;;;1;;
75342;SDS011;63936;51.006;13.764;2023-08-01T06:46:01;4;;;1;;
75342;SDS011;63936;51.006;13.764;2023-08-01T06:48:01;4;;;1;;
75342;SDS011;63936;51.006;13.764;2023-08-01T06:50:01;4;;;1;;
75342;SDS011;63936;51.006;13.764;2023-08-01T06:52:01;4;;;1;;
75342;SDS011;63936;51.006;13.764;2023-08-01T06:54:01;4;;;1;;
75342;SDS011;63936;51.006;13.764;2023-08-01T06:56:01;5;;;1;;
75342;SDS011;63936;51.006;13.764;2023-08-01T06:58:01;4;;;1;;
75342;SDS011;63936;51.006;13.764;2023-08-01T07:00:02;4;;;1;;
75342;SDS011;63936;51.006;13.764;2023-08-01T07:02:01;4;;;1;;
75342;SDS011;63936;51.006;13.764;2023-08-01T07:04:01;4;;;1;;
75342;SDS011;63936;51.006;13.764;2023-08-01T07:06:01;4;;;1;;
75342;SDS011;63936;51.006;13.764;2023-08-01T07:08:01;4;;;1;;
75342;SDS011;63936;51.006;13.764;2023-08-01T07:10:02;4;;;1;;
75342;SDS011;63936;51.006;13.764;2023-08-01T07:12:02;4;;;1;;
75342;SDS011;63936;51.006;13.764;2023-08-01T07:14:02;5;;;1;;
75342;SDS011;63936;51.006;13.764;2023-08-01T07:16:01;4;;;1;;
75342;SDS011;63936;51.006;13.764;2023-08-01T07:18:01;4;;;1;;
75342;SDS011;63936;51.006;13.764;2023-08-01T07:20:01;4;;;1;;
75342;SDS011;63936;51.006;13.764;2023-08-01T07:22:01;4;;;1;;
75342;SDS011;63936;51.006;13.764;2023-08-01T07:24:01;5;;;2;;
75342;SDS011;63936;51.006;13.764;2023-08-01T07:26:02;5;;;1;;
75342;SDS011;63936;51.006;13.764;2023-08-01T07:28:02;5;;;1;;
75342;SDS011;63936;51.006;13.764;2023-08-01T07:30:02;4;;;2;;
75342;SDS011;63936;51.006;13.764;2023-08-01T07:32:02;4;;;1;;
75342;SDS011;63936;51.006;13.764;2023-08-01T07:34:02;4;;;1;;
75342;SDS011;63936;51.006;13.764;2023-08-01T07:36:02;4;;;1;;
75342;SDS011;63936;51.006;13.764;2023-08-01T07:38:02;4;;;1;;
75342;SDS011;63936;51.006;13.764;2023-08-01T07:40:01;4;;;1;;
75342;SDS011;63936;51.006;13.764;2023-08-01T07:42:01;5;;;1;;
75342;SDS011;63936;51.006;13.764;2023-08-01T07:44:01;4;;;1;;
75342;SDS011;63936;51.006;13.764;2023-08-01T07:46:01;4;;;1;;
75342;SDS011;63936;51.006;13.764;2023-08-01T07:48:01;4;;;1;;
75342;SDS011;63936;51.006;13.764;2023-08-01T07:50:01;4;;;1;;
75342;SDS011;63936;51.006;13.764;2023-08-01T07:52:01;4;;;1;;
75342;SDS011;63936;51.006;13.764;2023-08-01T07:54:01;4;;;1;;
75342;SDS011;63936;51.006;13.764;2023-08-01T07:56:01;4;;;1;;
75342;SDS011;63936;51.006;13.764;2023-08-01T07:58:01;6;;;1;;
75342;SDS011;63936;51.006;13.764;2023-08-01T08:00:03;5;;;1;;
75342;SDS011;63936;51.006;13.764;2023-08-01T08:02:02;4;;;1;;
75342;SDS011;63936;51.006;13.764;2023-08-01T08:04:02;4;;;1;;
75342;SDS011;63936;51.006;13.764;2023-08-01T08:06:01;4;;;1;;
75342;SDS011;63936;51.006;13.764;2023-08-01T08:08:03;5;;;1;;
75342;SDS011;63936;51.006;13.764;2023-08-01T08:10:07;4;;;1;;
75342;SDS011;63936;51.006;13.764;2023-08-01T08:12:02;4;;;1;;
75342;SDS011;63936;51.006;13.764;2023-08-01T08:14:02;4;;;1;;
75342;SDS011;63936;51.006;13.764;2023-08-01T08:16:04;5;;;1;;
75342;SDS011;63936;51.006;13.764;2023-08-01T08:18:02;4;;;1;;
75342;SDS011;63936;51.006;13.764;2023-08-01T08:20:06;4;;;1;;
75342;SDS011;63936;51.006;13.764;2023-08-01T08:22:04;4;;;1;;
75342;SDS011;63936;51.006;13.764;2023-08-01T08:24:02;4;;;1;;
75342;SDS011;63936;51.006;13.764;2023-08-01T08:26:02;4;;;1;;
75342;SDS011;63936;51.006;13.764;2023-08-01T08:28:02;4;;;1;;
75342;SDS011;63936;51.006;13.764;2023-08-01T08:30:02;4;;;1;;
75342;SDS011;63936;51.006;13.764;2023-08-01T08:32:02;4;;;1;;
75342;SDS011;63936;51.006;13.764;2023-08-01T08:34:02;4;;;1;;
75342;SDS011;63936;51.006;13.764;2023-08-01T08:36:01;6;;;1;;
75342;SDS011;63936;51.006;13.764;2023-08-01T08:38:01;5;;;1;;
75342;SDS011;63936;51.006;13.764;2023-08-01T08:40:02;3;;;1;;
75342;SDS011;63936;51.006;13.764;2023-08-01T08:42:02;3;;;1;;
75342;SDS011;63936;51.006;13.764;2023-08-01T08:44:01;4;;;1;;
75342;SDS011;63936;51.006;13.764;2023-08-01T08:46:03;4;;;1;;
75342;SDS011;63936;51.006;13.764;2023-08-01T08:48:02;4;;;1;;
75342;SDS011;63936;51.006;13.764;2023-08-01T08:50:03;4;;;1;;
75342;SDS011;63936;51.006;13.764;2023-08-01T08:52:01;4;;;1;;
75342;SDS011;63936;51.006;13.764;2023-08-01T08:54:01;3;;;1;;
75342;SDS011;63936;51.006;13.764;2023-08-01T08:56:02;4;;;1;;
75342;SDS011;63936;51.006;13.764;2023-08-01T08:58:02;4;;;1;;
75342;SDS011;63936;51.006;13.764;2023-08-01T09:00:03;3;;;1;;
75342;SDS011;63936;51.006;13.764;2023-08-01T09:02:01;4;;;1;;
75342;SDS011;63936;51.006;13.764;2023-08-01T09:04:01;4;;;1;;
75342;SDS011;63936;51.006;13.764;2023-08-01T09:06:03;5;;;1;;
75342;SDS011;63936;51.006;13.764;2023-08-01T09:08:02;4;;;1;;
75342;SDS011;63936;51.006;13.764;2023-08-01T09:10:02;4;;;1;;
75342;SDS011;63936;51.006;13.764;2023-08-01T09:12:02;4;;;1;;
75342;SDS011;63936;51.006;13.764;2023-08-01T09:14:02;4;;;1;;
75342;SDS011;63936;51.006;13.764;2023-08-01T09:16:01;4;;;1;;
75342;SDS011;63936;51.006;13.764;2023-08-01T09:18:01;4;;;1;;
75342;SDS011;63936;51.006;13.764;2023-08-01T09:20:03;5;;;1;;
75342;SDS011;63936;51.006;13.764;2023-08-01T09:22:02;4;;;1;;
75342;SDS011;63936;51.006;13.764;2023-08-01T09:24:07;4;;;1;;
75342;SDS011;63936;51.006;13.764;2023-08-01T09:26:11;4;;;1;;
75342;SDS011;63936;51.006;13.764;2023-08-01T09:28:02;4;;;1;;
75342;SDS011;63936;51.006;13.764;2023-08-01T09:30:07;4;;;1;;
75342;SDS011;63936;51.006;13.764;2023-08-01T09:32:11;4;;;1;;
75342;SDS011;63936;51.006;13.764;2023-08-01T09:34:02;3;;;1;;
75342;SDS011;63936;51.006;13.764;2023-08-01T09:36:01;4;;;1;;
75342;SDS011;63936;51.006;13.764;2023-08-01T09:38:01;3;;;1;;
75342;SDS011;63936;51.006;13.764;2023-08-01T09:40:02;4;;;1;;
75342;SDS011;63936;51.006;13.764;2023-08-01T09:42:02;3;;;1;;
75342;SDS011;63936;51.006;13.764;2023-08-01T09:44:02;3;;;1;;
75342;SDS011;63936;51.006;13.764;2023-08-01T09:46:01;3;;;1;;
75342;SDS011;63936;51.006;13.764;2023-08-01T09:48:01;3;;;1;;
75342;SDS011;63936;51.006;13.764;2023-08-01T09:50:02;4;;;1;;
75342;SDS011;63936;51.006;13.764;2023-08-01T09:52:02;4;;;1;;
75342;SDS011;63936;51.006;13.764;2023-08-01T09:54:01;3;;;1;;
75342;SDS011;63936;51.006;13.764;2023-08-01T09:56:02;3;;;1;;
75342;SDS011;63936;51.006;13.764;2023-08-01T09:58:02;4;;;1;;
75342;SDS011;63936;51.006;13.764;2023-08-01T10:00:03;3;;;1;;
75342;SDS011;63936;51.006;13.764;2023-08-01T10:02:01;3;;;1;;
75342;SDS011;63936;51.006;13.764;2023-08-01T10:04:01;3;;;1;;
75342;SDS011;63936;51.006;13.764;2023-08-01T10:06:01;4;;;1;;
75342;SDS011;63936;51.006;13.764;2023-08-01T10:08:02;3;;;1;;
75342;SDS011;63936;51.006;13.764;2023-08-01T10:10:02;3;;;1;;
75342;SDS011;63936;51.006;13.764;2023-08-01T10:12:02;3;;;1;;
75342;SDS011;63936;51.006;13.764;2023-08-01T10:14:02;3;;;1;;
75342;SDS011;63936;51.006;13.764;2023-08-01T10:16:01;3;;;1;;
75342;SDS011;63936;51.006;13.764;2023-08-01T10:18:01;3;;;1;;
75342;SDS011;63936;51.006;13.764;2023-08-01T10:20:01;4;;;1;;
75342;SDS011;63936;51.006;13.764;2023-08-01T10:22:01;4;;;1;;
75342;SDS011;63936;51.006;13.764;2023-08-01T10:24:01;3;;;1;;
75342;SDS011;63936;51.006;13.764;2023-08-01T10:26:03;5;;;1;;
75342;SDS011;63936;51.006;13.764;2023-08-01T10:28:01;4;;;1;;
75342;SDS011;63936;51.006;13.764;2023-08-01T10:30:03;3;;;1;;
75342;SDS011;63936;51.006;13.764;2023-08-01T10:32:01;3;;;1;;
75342;SDS011;63936;51.006;13.764;2023-08-01T10:34:04;3;;;1;;
75342;SDS011;63936;51.006;13.764;2023-08-01T10:36:01;4;;;1;;
75342;SDS011;63936;51.006;13.764;2023-08-01T10:38:04;4;;;1;;
75342;SDS011;63936;51.006;13.764;2023-08-01T10:40:02;3;;;1;;
75342;SDS011;63936;51.006;13.764;2023-08-01T10:42:01;3;;;1;;
75342;SDS011;63936;51.006;13.764;2023-08-01T10:44:04;3;;;1;;
75342;SDS011;63936;51.006;13.764;2023-08-01T10:46:01;3;;;1;;
75342;SDS011;63936;51.006;13.764;2023-08-01T10:48:08;3;;;1;;
75342;SDS011;63936;51.006;13.764;2023-08-01T10:50:02;3;;;1;;
75342;SDS011;63936;51.006;13.764;2023-08-01T10:52:01;4;;;1;;
75342;SDS011;63936;51.006;13.764;2023-08-01T10:54:01;4;;;1;;
75342;SDS011;63936;51.006;13.764;2023-08-01T10:56:01;4;;;1;;
75342;SDS011;63936;51.006;13.764;2023-08-01T10:58:01;3;;;1;;
75342;SDS011;63936;51.006;13.764;2023-08-01T11:00:02;3;;;1;;
75342;SDS011;63936;51.006;13.764;2023-08-01T11:02:01;3;;;1;;
75342;SDS011;63936;51.006;13.764;2023-08-01T11:04:01;3;;;1;;
75342;SDS011;63936;51.006;13.764;2023-08-01T11:06:01;3;;;1;;
75342;SDS011;63936;51.006;13.764;2023-08-01T11:08:02;3;;;1;;
75342;SDS011;63936;51.006;13.764;2023-08-01T11:10:03;3;;;1;;
75342;SDS011;63936;51.006;13.764;2023-08-01T11:12:02;3;;;1;;
75342;SDS011;63936;51.006;13.764;2023-08-01T11:14:02;4;;;1;;
75342;SDS011;63936;51.006;13.764;2023-08-01T11:16:02;4;;;1;;
75342;SDS011;63936;51.006;13.764;2023-08-01T11:18:01;4;;;1;;
75342;SDS011;63936;51.006;13.764;2023-08-01T11:20:03;2;;;1;;
75342;SDS011;63936;51.006;13.764;2023-08-01T11:22:08;3;;;1;;
75342;SDS011;63936;51.006;13.764;2023-08-01T11:24:05;3;;;1;;
75342;SDS011;63936;51.006;13.764;2023-08-01T11:26:05;4;;;1;;
75342;SDS011;63936;51.006;13.764;2023-08-01T11:28:03;3;;;1;;
75342;SDS011;63936;51.006;13.764;2023-08-01T11:30:01;3;;;1;;
75342;SDS011;63936;51.006;13.764;2023-08-01T11:32:01;4;;;2;;
75342;SDS011;63936;51.006;13.764;2023-08-01T11:34:01;3;;;1;;
75342;SDS011;63936;51.006;13.764;2023-08-01T11:36:01;3;;;1;;
75342;SDS011;63936;51.006;13.764;2023-08-01T11:38:01;3;;;1;;
75342;SDS011;63936;51.006;13.764;2023-08-01T11:40:02;4;;;1;;
75342;SDS011;63936;51.006;13.764;2023-08-01T11:42:01;3;;;1;;
75342;SDS011;63936;51.006;13.764;2023-08-01T11:44:02;3;;;1;;
75342;SDS011;63936;51.006;13.764;2023-08-01T11:46:01;4;;;1;;
75342;SDS011;63936;51.006;13.764;2023-08-01T11:48:01;4;;;1;;
75342;SDS011;63936;51.006;13.764;2023-08-01T11:50:02;3;;;1;;
75342;SDS011;63936;51.006;13.764;2023-08-01T11:52:01;6;;;1;;
75342;SDS011;63936;51.006;13.764;2023-08-01T11:54:02;4;;;1;;
75342;SDS011;63936;51.006;13.764;2023-08-01T11:56:01;3;;;1;;
75342;SDS011;63936;51.006;13.764;2023-08-01T11:58:01;4;;;1;;
75342;SDS011;63936;51.006;13.764;2023-08-01T12:00:02;4;;;1;;
75342;SDS011;63936;51.006;13.764;2023-08-01T12:02:01;4;;;1;;
75342;SDS011;63936;51.006;13.764;2023-08-01T12:04:01;3;;;1;;
75342;SDS011;63936;51.006;13.764;2023-08-01T12:06:02;4;;;1;;
75342;SDS011;63936;51.006;13.764;2023-08-01T12:08:09;4;;;1;;
75342;SDS011;63936;51.006;13.764;2023-08-01T12:10:03;4;;;1;;
75342;SDS011;63936;51.006;13.764;2023-08-01T12:12:01;3;;;1;;
75342;SDS011;63936;51.006;13.764;2023-08-01T12:14:02;3;;;1;;
75342;SDS011;63936;51.006;13.764;2023-08-01T12:16:01;3;;;1;;
75342;SDS011;63936;51.006;13.764;2023-08-01T12:18:01;3;;;1;;
75342;SDS011;63936;51.006;13.764;2023-08-01T12:20:03;4;;;1;;
75342;SDS011;63936;51.006;13.764;2023-08-01T12:22:01;3;;;1;;
75342;SDS011;63936;51.006;13.764;2023-08-01T12:24:01;3;;;1;;
75342;SDS011;63936;51.006;13.764;2023-08-01T12:26:01;4;;;1;;
75342;SDS011;63936;51.006;13.764;2023-08-01T12:28:01;4;;;1;;
75342;SDS011;63936;51.006;13.764;2023-08-01T12:30:02;3;;;1;;
75342;SDS011;63936;51.006;13.764;2023-08-01T12:32:01;3;;;1;;
75342;SDS011;63936;51.006;13.764;2023-08-01T12:34:01;3;;;1;;
75342;SDS011;63936;51.006;13.764;2023-08-01T12:36:01;4;;;1;;
75342;SDS011;63936;51.006;13.764;2023-08-01T12:38:01;4;;;1;;
75342;SDS011;63936;51.006;13.764;2023-08-01T12:40:03;4;;;1;;
75342;SDS011;63936;51.006;13.764;2023-08-01T12:42:02;5;;;1;;
75342;SDS011;63936;51.006;13.764;2023-08-01T12:44:02;6;;;1;;
75342;SDS011;63936;51.006;13.764;2023-08-01T12:46:01;5;;;1;;
75342;SDS011;63936;51.006;13.764;2023-08-01T12:48:01;3;;;1;;
75342;SDS011;63936;51.006;13.764;2023-08-01T12:50:02;4;;;1;;
75342;SDS011;63936;51.006;13.764;2023-08-01T12:52:02;4;;;1;;
75342;SDS011;63936;51.006;13.764;2023-08-01T12:54:01;4;;;1;;
75342;SDS011;63936;51.006;13.764;2023-08-01T12:56:01;5;;;1;;
75342;SDS011;63936;51.006;13.764;2023-08-01T12:58:01;5;;;1;;
75342;SDS011;63936;51.006;13.764;2023-08-01T13:00:03;5;;;1;;
75342;SDS011;63936;51.006;13.764;2023-08-01T13:02:01;5;;;1;;